createdAt,value
2022-10-05T00:00:19.812Z,7.92
2022-10-05T00:02:47.922Z,7.92
2022-10-05T00:05:22.090Z,7.93
2022-10-05T00:07:49.635Z,7.86
2022-10-05T00:10:20.180Z,7.94
2022-10-05T00:12:48.731Z,8.00
2022-10-05T00:15:18.754Z,8.01
2022-10-05T00:17:46.267Z,8.09
2022-10-05T00:20:18.899Z,8.08
2022-10-05T00:22:46.609Z,8.10
2022-10-05T00:25:16.635Z,8.15
2022-10-05T00:27:47.155Z,7.98
2022-10-05T00:30:16.531Z,7.67
2022-10-05T00:32:44.293Z,7.76
2022-10-05T00:35:13.175Z,7.77
2022-10-05T00:37:41.008Z,7.71
2022-10-05T00:40:15.663Z,7.85
2022-10-05T00:42:50.735Z,7.83
2022-10-05T00:45:22.259Z,7.83
2022-10-05T00:47:58.803Z,7.85
2022-10-05T00:50:45.944Z,7.86
2022-10-05T00:53:25.665Z,7.88
2022-10-05T00:56:00.397Z,7.74
2022-10-05T00:58:39.535Z,7.82
2022-10-05T01:01:10.645Z,7.68
2022-10-05T01:03:46.056Z,7.59
2022-10-05T01:06:22.355Z,7.54
2022-10-05T01:08:55.275Z,7.50
2022-10-05T01:11:28.673Z,7.68
2022-10-05T01:14:02.063Z,7.63
2022-10-05T01:16:32.414Z,7.70
2022-10-05T01:19:03.038Z,7.75
2022-10-05T01:21:34.369Z,7.78
2022-10-05T01:24:16.356Z,7.65
2022-10-05T01:26:57.244Z,7.67
2022-10-05T01:29:33.249Z,7.63
2022-10-05T01:32:05.598Z,7.53
2022-10-05T01:34:39.103Z,7.29
2022-10-05T01:37:12.799Z,7.39
2022-10-05T01:39:44.866Z,7.38
2022-10-05T01:42:15.071Z,7.30
2022-10-05T01:44:50.927Z,7.30
2022-10-05T01:47:22.694Z,7.29
2022-10-05T01:49:57.739Z,7.40
2022-10-05T01:52:31.584Z,7.45
2022-10-05T01:55:08.545Z,7.51
2022-10-05T01:57:44.671Z,7.57
2022-10-05T02:00:14.623Z,7.56
2022-10-05T02:02:46.463Z,7.70
2022-10-05T02:05:17.960Z,7.69
2022-10-05T02:07:49.185Z,7.65
2022-10-05T02:10:22.040Z,7.46
2022-10-05T02:12:54.236Z,7.19
2022-10-05T02:15:27.156Z,7.22
2022-10-05T02:17:58.623Z,7.41
2022-10-05T02:20:28.998Z,7.39
2022-10-05T02:23:01.593Z,7.44
2022-10-05T02:25:31.478Z,7.48
2022-10-05T02:28:03.358Z,7.43
2022-10-05T02:30:34.483Z,7.44
2022-10-05T02:33:04.451Z,7.44
2022-10-05T02:35:31.928Z,7.44
2022-10-05T02:38:06.697Z,7.55
2022-10-05T02:40:42.517Z,7.45
2022-10-05T02:43:18.534Z,7.45
2022-10-05T02:45:54.411Z,7.58
2022-10-05T02:48:29.681Z,7.43
2022-10-05T02:51:03.332Z,7.32
2022-10-05T02:53:35.657Z,7.31
2022-10-05T02:56:11.659Z,7.31
2022-10-05T02:58:46.123Z,7.47
2022-10-05T03:01:19.847Z,7.64
2022-10-05T03:03:57.153Z,7.59
2022-10-05T03:06:28.608Z,7.53
2022-10-05T03:09:01.312Z,7.48
2022-10-05T03:11:32.970Z,7.52
2022-10-05T03:14:04.424Z,7.53
2022-10-05T03:16:46.122Z,7.47
2022-10-05T03:19:32.423Z,7.41
2022-10-05T03:22:03.817Z,7.39
2022-10-05T03:24:48.459Z,7.48
2022-10-05T03:27:26.817Z,7.49
2022-10-05T03:29:59.065Z,7.55
2022-10-05T03:32:33.073Z,7.62
2022-10-05T03:35:04.965Z,7.68
2022-10-05T03:37:40.296Z,7.81
2022-10-05T03:40:11.211Z,8.00
2022-10-05T03:42:50.673Z,7.99
2022-10-05T03:45:24.049Z,8.10
2022-10-05T03:48:01.285Z,8.14
2022-10-05T03:50:35.758Z,8.16
2022-10-05T03:53:05.873Z,8.18
2022-10-05T03:55:37.444Z,8.30
2022-10-05T03:58:08.358Z,8.38
2022-10-05T04:00:36.627Z,8.52
2022-10-05T04:03:10.474Z,8.66
2022-10-05T04:05:43.589Z,8.70
2022-10-05T04:08:13.058Z,8.62
2022-10-05T04:10:43.155Z,8.58
2022-10-05T04:13:15.322Z,8.67
2022-10-05T04:15:45.940Z,8.68
2022-10-05T04:18:23.200Z,8.70
2022-10-05T04:20:52.665Z,8.56
2022-10-05T04:23:24.955Z,8.48
2022-10-05T04:25:55.059Z,8.35
2022-10-05T04:28:31.196Z,8.33
2022-10-05T04:31:01.296Z,8.47
2022-10-05T04:33:30.116Z,8.40
2022-10-05T04:36:16.843Z,8.28
2022-10-05T04:39:03.695Z,8.19
2022-10-05T04:41:42.363Z,8.20
2022-10-05T04:44:22.837Z,8.20
2022-10-05T04:47:03.282Z,8.10
2022-10-05T04:49:45.427Z,7.95
2022-10-05T04:52:16.233Z,7.95
2022-10-05T04:54:51.334Z,7.96
2022-10-05T04:57:21.958Z,7.96
2022-10-05T05:00:11.145Z,7.88
2022-10-05T05:02:57.568Z,8.09
2022-10-05T05:05:33.646Z,8.07
2022-10-05T05:08:10.171Z,7.99
2022-10-05T05:11:15.282Z,7.86
2022-10-05T05:14:08.347Z,7.85
2022-10-05T05:16:38.382Z,7.81
2022-10-05T05:19:34.696Z,7.84
2022-10-05T05:22:05.260Z,7.81
2022-10-05T05:24:41.018Z,7.87
2022-10-05T05:27:19.881Z,7.91
2022-10-05T05:29:54.337Z,7.94
2022-10-05T05:32:26.333Z,8.04
2022-10-05T05:35:06.829Z,8.18
2022-10-05T05:37:39.960Z,8.23
2022-10-05T05:40:15.075Z,8.27
2022-10-05T05:42:49.433Z,8.34
2022-10-05T05:45:19.456Z,8.39
2022-10-05T05:47:53.704Z,8.44
2022-10-05T05:50:32.485Z,8.51
2022-10-05T05:53:06.075Z,8.57
2022-10-05T05:55:36.386Z,8.59
2022-10-05T05:58:05.820Z,8.62
2022-10-05T06:00:37.609Z,8.69
2022-10-05T06:03:10.115Z,8.71
2022-10-05T06:05:42.236Z,8.79
2022-10-05T06:08:17.624Z,8.78
2022-10-05T06:10:47.674Z,8.84
2022-10-05T06:13:20.180Z,8.84
2022-10-05T06:15:50.765Z,8.90
2022-10-05T06:18:20.789Z,9.00
2022-10-05T06:20:53.144Z,9.10
2022-10-05T06:23:24.328Z,9.15
2022-10-05T06:26:09.761Z,9.19
2022-10-05T06:28:38.418Z,9.27
2022-10-05T06:31:13.976Z,9.33
2022-10-05T06:33:47.814Z,9.42
2022-10-05T06:36:35.492Z,9.50
2022-10-05T06:39:18.037Z,9.59
2022-10-05T06:41:55.856Z,9.63
2022-10-05T06:44:27.037Z,9.66
2022-10-05T06:47:01.186Z,9.73
2022-10-05T06:49:32.106Z,9.84
2022-10-05T06:52:05.983Z,9.92
2022-10-05T06:54:43.560Z,9.95
2022-10-05T06:57:16.629Z,10.06
2022-10-05T06:59:51.074Z,10.03
2022-10-05T07:02:23.642Z,10.10
2022-10-05T07:05:14.302Z,10.10
2022-10-05T07:07:45.425Z,10.09
2022-10-05T07:10:20.785Z,10.11
2022-10-05T07:13:00.408Z,10.14
2022-10-05T07:15:40.265Z,10.23
2022-10-05T07:18:23.862Z,10.16
2022-10-05T07:20:56.771Z,10.19
2022-10-05T07:23:30.870Z,10.16
2022-10-05T07:26:05.183Z,10.22
2022-10-05T07:28:38.358Z,10.27
2022-10-05T07:31:11.325Z,10.26
2022-10-05T07:33:43.092Z,10.25
2022-10-05T07:36:31.606Z,10.33
2022-10-05T07:39:03.989Z,10.39
2022-10-05T07:41:40.069Z,10.42
2022-10-05T07:44:13.276Z,10.55
2022-10-05T07:46:47.969Z,10.52
2022-10-05T07:49:21.547Z,10.61
2022-10-05T07:51:52.215Z,10.62
2022-10-05T07:54:22.902Z,10.73
2022-10-05T07:56:55.924Z,10.78
2022-10-05T07:59:28.332Z,10.87
2022-10-05T08:02:03.795Z,10.90
2022-10-05T08:04:39.432Z,10.85
2022-10-05T08:07:13.247Z,10.81
2022-10-05T08:09:45.350Z,10.82
2022-10-05T08:12:22.089Z,10.90
2022-10-05T08:14:53.938Z,10.96
2022-10-05T08:17:27.393Z,11.03
2022-10-05T08:20:02.605Z,11.14
2022-10-05T08:22:32.110Z,11.25
2022-10-05T08:25:02.630Z,11.28
2022-10-05T08:27:35.536Z,11.21
2022-10-05T08:30:05.746Z,11.32
2022-10-05T08:32:39.016Z,11.43
2022-10-05T08:35:26.957Z,11.28
2022-10-05T08:37:55.259Z,11.15
2022-10-05T08:40:46.123Z,11.21
2022-10-05T08:43:30.592Z,11.37
2022-10-05T08:46:23.141Z,11.45
2022-10-05T08:49:17.766Z,11.39
2022-10-05T08:52:12.451Z,11.48
2022-10-05T08:54:46.583Z,11.77
2022-10-05T08:57:55.634Z,11.69
2022-10-05T09:00:24.799Z,11.66
2022-10-05T09:03:25.070Z,11.93
2022-10-05T09:06:44.776Z,12.00
2022-10-05T09:09:29.075Z,12.05
2022-10-05T09:12:24.141Z,12.24
2022-10-05T09:15:20.919Z,12.24
2022-10-05T09:18:17.634Z,12.33
2022-10-05T09:20:52.681Z,12.30
2022-10-05T09:23:32.573Z,12.41
2022-10-05T09:26:05.521Z,12.55
2022-10-05T09:28:35.540Z,12.61
2022-10-05T09:31:27.240Z,12.71
2022-10-05T09:34:13.762Z,12.93
2022-10-05T09:37:23.761Z,13.00
2022-10-05T09:40:18.088Z,13.26
2022-10-05T09:43:16.472Z,13.35
2022-10-05T09:46:10.247Z,13.42
2022-10-05T09:49:06.248Z,13.29
2022-10-05T09:52:10.185Z,13.41
2022-10-05T09:55:09.260Z,13.62
2022-10-05T09:57:53.453Z,13.76
2022-10-05T10:00:25.948Z,14.03
2022-10-05T10:03:19.955Z,14.17
2022-10-05T10:06:14.940Z,14.27
2022-10-05T10:08:50.619Z,14.19
2022-10-05T10:11:29.625Z,14.25
2022-10-05T10:14:19.669Z,14.33
2022-10-05T10:16:57.822Z,14.31
2022-10-05T10:19:46.073Z,14.17
2022-10-05T10:22:48.513Z,14.39
2022-10-05T10:25:31.678Z,14.45
2022-10-05T10:28:14.523Z,14.44
2022-10-05T10:31:02.433Z,14.57
2022-10-05T10:33:59.947Z,14.78
2022-10-05T10:36:40.093Z,14.72
2022-10-05T10:39:10.951Z,14.88
2022-10-05T10:42:13.521Z,14.93
2022-10-05T10:45:03.567Z,14.89
2022-10-05T10:47:52.576Z,14.90
2022-10-05T10:50:33.070Z,14.96
2022-10-05T10:53:11.889Z,15.06
2022-10-05T10:55:43.482Z,15.28
2022-10-05T10:58:43.831Z,15.43
2022-10-05T11:01:27.063Z,15.56
2022-10-05T11:04:27.239Z,15.66
2022-10-05T11:07:35.159Z,15.85
2022-10-05T11:10:25.930Z,16.06
2022-10-05T11:13:24.668Z,16.02
2022-10-05T11:16:17.284Z,16.11
2022-10-05T11:18:55.133Z,16.12
2022-10-05T11:21:30.291Z,16.20
2022-10-05T11:24:48.441Z,16.21
2022-10-05T11:27:36.853Z,16.38
2022-10-05T11:30:15.340Z,16.50
2022-10-05T11:33:25.026Z,16.58
2022-10-05T11:36:14.965Z,16.64
2022-10-05T11:39:04.048Z,16.62
2022-10-05T11:41:59.358Z,16.89
2022-10-05T11:44:43.852Z,16.96
2022-10-05T11:47:14.101Z,16.86
2022-10-05T11:49:45.702Z,16.95
2022-10-05T11:52:17.689Z,16.92
2022-10-05T11:55:10.896Z,16.95
2022-10-05T11:57:40.964Z,16.94
2022-10-05T12:00:15.087Z,17.09
2022-10-05T12:03:24.016Z,17.28
2022-10-05T12:06:19.110Z,17.30
2022-10-05T12:08:57.000Z,17.36
2022-10-05T12:11:41.349Z,17.35
2022-10-05T12:14:14.503Z,17.16
2022-10-05T12:16:47.066Z,17.07
2022-10-05T12:19:19.304Z,16.86
2022-10-05T12:21:51.787Z,16.95
2022-10-05T12:24:26.987Z,17.08
2022-10-05T12:26:58.868Z,17.30
2022-10-05T12:29:29.033Z,17.41
2022-10-05T12:32:00.823Z,17.43
2022-10-05T12:34:37.570Z,17.45
2022-10-05T12:37:12.006Z,17.53
2022-10-05T12:39:44.461Z,17.69
2022-10-05T12:42:20.219Z,17.61
2022-10-05T12:44:59.266Z,17.68
2022-10-05T12:47:31.195Z,17.67
2022-10-05T12:50:04.637Z,17.75
2022-10-05T12:52:50.807Z,17.75
2022-10-05T12:55:25.941Z,17.62
2022-10-05T12:58:05.227Z,17.63
2022-10-05T13:00:34.820Z,17.76
2022-10-05T13:03:05.181Z,17.85
2022-10-05T13:05:38.899Z,17.87
2022-10-05T13:08:17.683Z,18.00
2022-10-05T13:10:47.562Z,18.06
2022-10-05T13:13:38.581Z,18.12
2022-10-05T13:16:15.330Z,18.24
2022-10-05T13:18:54.308Z,18.28
2022-10-05T13:21:24.733Z,18.29
2022-10-05T13:23:59.346Z,18.29
2022-10-05T13:26:29.357Z,18.22
2022-10-05T13:29:00.464Z,18.16
2022-10-05T13:31:30.257Z,17.99
2022-10-05T13:34:15.385Z,17.99
2022-10-05T13:36:49.183Z,18.06
2022-10-05T13:39:28.659Z,18.27
2022-10-05T13:42:00.587Z,18.35
2022-10-05T13:44:34.624Z,18.42
2022-10-05T13:47:03.147Z,18.47
2022-10-05T13:49:37.302Z,18.49
2022-10-05T13:52:17.878Z,18.44
2022-10-05T13:54:53.322Z,18.51
2022-10-05T13:57:35.591Z,18.60
2022-10-05T14:00:05.593Z,18.58
2022-10-05T14:02:39.993Z,18.65
2022-10-05T14:05:16.993Z,18.68
2022-10-05T14:07:54.755Z,18.71
2022-10-05T14:10:36.505Z,18.80
2022-10-05T14:13:19.143Z,18.80
2022-10-05T14:15:59.354Z,18.85
2022-10-05T14:18:29.649Z,18.79
2022-10-05T14:21:05.288Z,18.91
2022-10-05T14:23:32.848Z,18.95
2022-10-05T14:26:04.527Z,18.98
2022-10-05T14:28:33.967Z,18.92
2022-10-05T14:31:04.897Z,18.99
2022-10-05T14:33:33.950Z,18.96
2022-10-05T14:36:02.430Z,18.98
2022-10-05T14:38:31.068Z,19.02
2022-10-05T14:41:13.336Z,19.08
2022-10-05T14:43:50.619Z,19.09
2022-10-05T14:46:28.159Z,19.02
2022-10-05T14:49:13.720Z,19.04
2022-10-05T14:51:42.711Z,18.99
2022-10-05T14:54:27.393Z,19.03
2022-10-05T14:57:02.364Z,18.97
2022-10-05T14:59:51.227Z,18.99
2022-10-05T15:02:35.141Z,19.03
2022-10-05T15:05:05.535Z,18.96
2022-10-05T15:07:37.393Z,18.93
2022-10-05T15:10:26.830Z,18.91
2022-10-05T15:12:58.225Z,18.94
2022-10-05T15:15:29.777Z,18.95
2022-10-05T15:18:01.333Z,18.93
2022-10-05T15:20:32.990Z,18.88
2022-10-05T15:23:10.838Z,18.89
2022-10-05T15:25:45.536Z,18.88
2022-10-05T15:28:22.437Z,18.83
2022-10-05T15:30:53.721Z,18.80
2022-10-05T15:33:27.617Z,18.77
2022-10-05T15:36:11.067Z,18.68
2022-10-05T15:38:49.687Z,18.66
2022-10-05T15:41:20.222Z,18.63
2022-10-05T15:44:06.557Z,18.61
2022-10-05T15:46:36.898Z,18.55
2022-10-05T15:49:16.217Z,18.51
2022-10-05T15:51:55.432Z,18.48
2022-10-05T15:54:42.700Z,18.35
2022-10-05T15:57:17.399Z,18.39
2022-10-05T15:59:54.552Z,18.33
2022-10-05T16:02:25.765Z,18.25
2022-10-05T16:05:03.835Z,18.23
2022-10-05T16:07:57.712Z,18.17
2022-10-05T16:10:25.735Z,18.19
2022-10-05T16:13:05.094Z,18.11
2022-10-05T16:15:36.936Z,18.10
2022-10-05T16:18:31.182Z,18.06
2022-10-05T16:21:09.481Z,17.98
2022-10-05T16:23:44.715Z,17.94
2022-10-05T16:26:23.766Z,17.84
2022-10-05T16:28:58.617Z,17.73
2022-10-05T16:31:34.432Z,17.61
2022-10-05T16:34:09.359Z,17.47
2022-10-05T16:36:49.168Z,17.46
2022-10-05T16:39:21.009Z,17.38
2022-10-05T16:41:52.256Z,17.25
2022-10-05T16:44:27.210Z,17.20
2022-10-05T16:46:59.629Z,17.18
2022-10-05T16:49:36.792Z,17.06
2022-10-05T16:52:06.881Z,16.97
2022-10-05T16:54:39.064Z,16.85
2022-10-05T16:57:12.614Z,16.81
2022-10-05T17:00:00.451Z,16.67
2022-10-05T17:02:40.022Z,16.65
2022-10-05T17:05:19.977Z,16.56
2022-10-05T17:07:55.675Z,16.47
2022-10-05T17:10:49.681Z,16.34
2022-10-05T17:13:30.613Z,16.20
2022-10-05T17:16:04.972Z,16.20
2022-10-05T17:19:08.534Z,16.10
2022-10-05T17:21:44.349Z,16.02
2022-10-05T17:24:28.900Z,15.94
2022-10-05T17:27:02.410Z,15.94
2022-10-05T17:29:42.735Z,15.74
2022-10-05T17:32:12.887Z,15.72
2022-10-05T17:34:40.926Z,15.60
2022-10-05T17:37:35.089Z,15.49
2022-10-05T17:40:32.702Z,15.53
2022-10-05T17:43:01.388Z,15.33
2022-10-05T17:45:52.730Z,15.32
2022-10-05T17:48:41.217Z,15.34
2022-10-05T17:51:34.659Z,15.24
2022-10-05T17:54:37.303Z,15.14
2022-10-05T17:57:28.675Z,15.06
2022-10-05T18:00:01.997Z,15.07
2022-10-05T18:02:42.766Z,14.94
2022-10-05T18:05:25.717Z,14.93
2022-10-05T18:08:32.512Z,14.85
2022-10-05T18:11:17.081Z,14.87
2022-10-05T18:13:50.041Z,14.76
2022-10-05T18:16:51.182Z,14.76
2022-10-05T18:19:21.199Z,14.70
2022-10-05T18:22:04.427Z,14.61
2022-10-05T18:24:46.676Z,14.49
2022-10-05T18:28:00.920Z,14.41
2022-10-05T18:30:31.911Z,14.39
2022-10-05T18:33:29.896Z,14.41
2022-10-05T18:36:07.423Z,14.39
2022-10-05T18:38:44.480Z,14.44
2022-10-05T18:41:19.943Z,14.41
2022-10-05T18:43:55.822Z,14.27
2022-10-05T18:46:33.884Z,14.21
2022-10-05T18:49:11.334Z,14.14
2022-10-05T18:51:51.678Z,14.10
2022-10-05T18:54:32.346Z,14.11
2022-10-05T18:57:01.213Z,14.00
2022-10-05T18:59:40.688Z,13.99
2022-10-05T19:02:16.150Z,14.00
2022-10-05T19:04:53.500Z,13.93
2022-10-05T19:07:30.279Z,13.91
2022-10-05T19:10:09.720Z,13.93
2022-10-05T19:12:46.310Z,13.94
2022-10-05T19:15:21.145Z,13.84
2022-10-05T19:18:11.431Z,13.85
2022-10-05T19:20:42.950Z,13.77
2022-10-05T19:23:22.983Z,13.72
2022-10-05T19:25:54.693Z,13.75
2022-10-05T19:28:28.691Z,13.78
2022-10-05T19:31:15.516Z,13.82
2022-10-05T19:33:56.533Z,13.81
2022-10-05T19:36:36.932Z,13.84
2022-10-05T19:39:08.952Z,13.80
2022-10-05T19:41:50.120Z,13.75
2022-10-05T19:44:30.956Z,13.72
2022-10-05T19:47:03.135Z,13.74
2022-10-05T19:49:44.579Z,13.74
2022-10-05T19:52:14.013Z,13.60
2022-10-05T19:54:42.917Z,13.63
2022-10-05T19:57:17.025Z,13.56
2022-10-05T19:59:48.320Z,13.53
2022-10-05T20:02:18.079Z,13.58
2022-10-05T20:04:47.476Z,13.40
2022-10-05T20:07:16.953Z,13.45
2022-10-05T20:09:53.897Z,13.40
2022-10-05T20:12:22.966Z,13.33
2022-10-05T20:15:26.661Z,13.35
2022-10-05T20:18:13.218Z,13.33
2022-10-05T20:20:45.749Z,13.30
2022-10-05T20:23:20.560Z,13.28
2022-10-05T20:26:08.687Z,13.28
2022-10-05T20:28:36.319Z,13.27
2022-10-05T20:31:04.202Z,13.23
2022-10-05T20:33:34.237Z,13.18
2022-10-05T20:36:03.539Z,13.08
2022-10-05T20:38:34.393Z,13.09
2022-10-05T20:41:03.827Z,13.17
2022-10-05T20:43:31.335Z,13.15
2022-10-05T20:45:58.898Z,13.09
2022-10-05T20:48:26.949Z,12.99
2022-10-05T20:50:57.065Z,13.00
2022-10-05T20:53:24.603Z,12.94
2022-10-05T20:55:52.188Z,12.92
2022-10-05T20:58:19.736Z,12.82
2022-10-05T21:01:16.434Z,12.77
2022-10-05T21:03:44.084Z,12.72
2022-10-05T21:06:13.387Z,12.66
2022-10-05T21:08:40.982Z,12.68
2022-10-05T21:11:08.919Z,12.75
2022-10-05T21:13:38.477Z,12.61
2022-10-05T21:16:08.644Z,12.52
2022-10-05T21:18:37.183Z,12.58
2022-10-05T21:21:05.044Z,12.53
2022-10-05T21:23:33.891Z,12.52
2022-10-05T21:26:01.635Z,12.48
2022-10-05T21:28:30.118Z,12.36
2022-10-05T21:30:58.228Z,12.36
2022-10-05T21:33:26.223Z,12.35
2022-10-05T21:35:54.116Z,12.33
2022-10-05T21:38:21.686Z,12.30
2022-10-05T21:40:51.190Z,12.29
2022-10-05T21:43:18.936Z,12.29
2022-10-05T21:45:47.157Z,12.26
2022-10-05T21:48:16.253Z,12.32
2022-10-05T21:50:43.938Z,12.36
2022-10-05T21:53:13.502Z,12.31
2022-10-05T21:55:42.045Z,12.25
2022-10-05T21:58:11.905Z,12.26
2022-10-05T22:00:41.013Z,12.29
2022-10-05T22:03:08.852Z,12.25
2022-10-05T22:05:36.554Z,12.24
2022-10-05T22:08:04.421Z,12.26
2022-10-05T22:10:32.742Z,12.30
2022-10-05T22:13:01.488Z,12.25
2022-10-05T22:15:31.507Z,12.27
2022-10-05T22:17:59.577Z,12.29
2022-10-05T22:20:27.356Z,12.32
2022-10-05T22:22:54.922Z,12.27
2022-10-05T22:25:22.835Z,12.25
2022-10-05T22:27:50.589Z,12.27
2022-10-05T22:30:18.681Z,12.30
2022-10-05T22:32:47.494Z,12.30
2022-10-05T22:35:15.064Z,12.28
2022-10-05T22:37:42.529Z,12.26
2022-10-05T22:40:11.128Z,12.28
2022-10-05T22:42:40.477Z,12.30
2022-10-05T22:45:09.205Z,12.34
2022-10-05T22:47:36.755Z,12.33
2022-10-05T22:50:06.209Z,12.38
2022-10-05T22:52:33.713Z,12.41
2022-10-05T22:55:01.172Z,12.36
2022-10-05T22:57:28.670Z,12.40
2022-10-05T22:59:56.112Z,12.42
2022-10-05T23:02:23.632Z,12.43
2022-10-05T23:04:51.076Z,12.45
2022-10-05T23:07:20.982Z,12.45
2022-10-05T23:09:48.449Z,12.38
2022-10-05T23:12:15.918Z,12.46
2022-10-05T23:14:43.392Z,12.41
2022-10-05T23:17:10.861Z,12.44
2022-10-05T23:19:38.326Z,12.48
2022-10-05T23:22:05.796Z,12.48
2022-10-05T23:24:35.336Z,12.41
2022-10-05T23:27:02.837Z,12.31
2022-10-05T23:29:30.302Z,12.36
2022-10-05T23:31:57.788Z,12.43
2022-10-05T23:34:27.194Z,12.48
2022-10-05T23:36:54.637Z,12.52
2022-10-05T23:39:22.131Z,12.43
2022-10-05T23:41:51.026Z,12.45
2022-10-05T23:44:18.559Z,12.45
2022-10-05T23:46:46.020Z,12.44
2022-10-05T23:49:14.659Z,12.43
2022-10-05T23:51:42.277Z,12.41
2022-10-05T23:54:09.704Z,12.37
2022-10-05T23:56:37.237Z,12.48
2022-10-05T23:59:06.018Z,12.42
